Time;durP1;ratioP1;P1;durP2;ratioP2;P2;SDS_P1;SDS_P2;PMS_P1;PMS_P2;Temp;Humidity;BMP_temperature;BMP_pressure;BME280_temperature;BME280_humidity;BME280_pressure;Samples;Min_cycle;Max_cycle;Signal;HPM_P1;HPM_P2
2023/01/25 00:00:08;;;;;;;48.97;29.20;;;1.90;99.90;;;;;;5038372;28;20202;-81
2023/01/25 00:02:34;;;;;;;47.97;30.37;;;2.00;99.90;;;;;;5056603;28;20284;-82
2023/01/25 00:05:01;;;;;;;49.53;30.20;;;2.00;99.90;;;;;;5055713;28;20202;-83
2023/01/25 00:07:28;;;;;;;45.83;29.33;;;2.00;99.90;;;;;;5056782;28;20204;-83
2023/01/25 00:09:55;;;;;;;47.10;30.47;;;2.00;99.90;;;;;;5046574;28;20234;-82
2023/01/25 00:12:22;;;;;;;48.53;30.17;;;2.00;99.90;;;;;;5036145;28;20513;-81
2023/01/25 00:14:50;;;;;;;52.77;32.60;;;2.10;99.90;;;;;;5043376;28;20209;-82
2023/01/25 00:17:17;;;;;;;47.87;31.13;;;2.10;99.90;;;;;;5055421;28;20285;-81
2023/01/25 00:19:44;;;;;;;54.37;33.13;;;2.10;99.90;;;;;;5055473;28;20312;-83
2023/01/25 00:22:11;;;;;;;58.23;35.17;;;2.10;99.90;;;;;;5055327;28;20292;-83
2023/01/25 00:24:38;;;;;;;52.13;32.47;;;2.10;99.90;;;;;;5056082;28;20499;-81
2023/01/25 00:27:04;;;;;;;57.40;33.87;;;2.10;99.90;;;;;;5049393;28;20569;-82
2023/01/25 00:29:32;;;;;;;55.10;33.13;;;2.10;99.90;;;;;;5036403;28;20818;-82
2023/01/25 00:32:08;;;;;;;57.10;34.13;;;2.10;99.90;;;;;;5037009;28;20203;-82
2023/01/25 00:34:53;;;;;;;53.27;32.47;;;2.20;99.90;;;;;;5035642;28;20617;-82
2023/01/25 00:37:42;;;;;;;55.70;35.27;;;2.20;99.90;;;;;;5036104;28;20639;-82
2023/01/25 00:40:12;;;;;;;53.47;32.67;;;2.20;99.90;;;;;;5035504;28;20209;-83
2023/01/25 00:42:40;;;;;;;53.17;33.17;;;2.20;99.90;;;;;;5036115;28;20615;-82
2023/01/25 00:45:08;;;;;;;53.57;32.33;;;2.20;99.90;;;;;;5040131;28;20210;-83
2023/01/25 00:47:37;;;;;;;52.93;33.40;;;2.20;99.90;;;;;;5055540;28;20292;-82
2023/01/25 00:50:04;;;;;;;53.63;32.33;;;2.20;99.90;;;;;;5081340;22;20720;-82
2023/01/25 00:52:31;;;;;;;55.90;33.70;;;2.20;99.90;;;;;;5095673;28;20489;-82
2023/01/25 00:54:58;;;;;;;54.47;33.77;;;2.20;99.90;;;;;;5076328;28;20207;-82
2023/01/25 00:57:25;;;;;;;57.57;35.20;;;2.20;99.90;;;;;;5074602;28;20289;-82
2023/01/25 00:59:52;;;;;;;56.20;33.57;;;2.20;99.90;;;;;;5074485;28;20587;-83
2023/01/25 01:02:19;;;;;;;56.80;34.27;;;2.20;99.90;;;;;;5074047;28;20297;-83
2023/01/25 01:04:47;;;;;;;60.10;34.40;;;2.20;99.90;;;;;;5075181;28;20228;-82
2023/01/25 01:07:15;;;;;;;57.43;34.90;;;2.20;99.90;;;;;;5076056;28;20288;-82
2023/01/25 01:09:42;;;;;;;55.90;33.93;;;2.20;99.90;;;;;;5075199;28;20561;-82
2023/01/25 01:12:09;;;;;;;57.30;34.57;;;2.20;99.90;;;;;;5075104;28;20292;-82
2023/01/25 01:14:36;;;;;;;56.63;34.00;;;2.20;99.90;;;;;;5092466;28;20219;-81
2023/01/25 01:17:03;;;;;;;51.93;31.30;;;2.20;99.90;;;;;;5094882;28;20198;-81
2023/01/25 01:19:30;;;;;;;56.73;34.03;;;2.20;99.90;;;;;;5095372;28;20513;-81
2023/01/25 01:21:59;;;;;;;55.77;34.17;;;2.20;99.90;;;;;;5094189;28;20211;-82
2023/01/25 01:24:25;;;;;;;54.27;32.67;;;2.20;99.90;;;;;;5074806;28;20208;-82
2023/01/25 01:26:52;;;;;;;58.73;34.07;;;2.20;99.90;;;;;;5075654;28;20199;-82
2023/01/25 01:29:19;;;;;;;61.67;37.70;;;2.20;99.90;;;;;;5074762;28;20593;-82
2023/01/25 01:31:46;;;;;;;59.17;35.00;;;2.20;99.90;;;;;;5074854;28;20209;-82
2023/01/25 01:34:14;;;;;;;60.23;34.20;;;2.20;99.90;;;;;;5074993;28;20211;-82
2023/01/25 01:36:41;;;;;;;65.33;36.90;;;2.20;99.90;;;;;;5074385;28;20216;-82
2023/01/25 01:39:09;;;;;;;54.63;33.50;;;2.20;99.90;;;;;;5074683;28;20227;-81
2023/01/25 01:41:37;;;;;;;56.87;34.00;;;2.20;99.90;;;;;;5075108;28;20295;-80
2023/01/25 01:44:04;;;;;;;53.77;33.60;;;2.20;99.90;;;;;;5074438;28;20597;-82
2023/01/25 01:46:36;;;;;;;57.77;34.73;;;2.20;99.90;;;;;;5074846;28;20703;-81
2023/01/25 01:49:06;;;;;;;53.73;32.37;;;2.20;99.90;;;;;;5074680;28;20256;-82
2023/01/25 01:51:44;;;;;;;56.60;34.70;;;2.20;99.90;;;;;;5073497;28;20246;-82
2023/01/25 01:54:18;;;;;;;54.90;32.60;;;2.20;99.90;;;;;;5074381;28;20197;-82
2023/01/25 01:56:51;;;;;;;58.27;34.73;;;2.20;99.90;;;;;;5074846;28;20285;-82
2023/01/25 01:59:18;;;;;;;54.37;33.53;;;2.20;99.90;;;;;;5088621;28;20227;-82
2023/01/25 02:01:46;;;;;;;53.50;32.50;;;2.20;99.90;;;;;;5095100;28;20196;-82
2023/01/25 02:04:14;;;;;;;55.20;33.20;;;2.20;99.90;;;;;;5086457;28;20209;-82
2023/01/25 02:06:47;;;;;;;56.53;33.87;;;2.20;99.90;;;;;;5073896;28;20210;-82
2023/01/25 02:09:17;;;;;;;59.20;35.53;;;2.20;99.90;;;;;;5074331;28;20204;-81
2023/01/25 02:11:45;;;;;;;53.33;32.40;;;2.20;99.90;;;;;;5073765;28;20315;-81
2023/01/25 02:14:14;;;;;;;56.77;33.60;;;2.20;99.90;;;;;;5073930;28;20276;-82
2023/01/25 02:16:41;;;;;;;58.97;36.10;;;2.20;99.90;;;;;;5074523;28;20604;-81
2023/01/25 02:19:12;;;;;;;56.80;35.30;;;2.20;99.90;;;;;;5073488;28;20320;-80
2023/01/25 02:21:44;;;;;;;57.90;34.63;;;2.20;99.90;;;;;;5081851;28;20307;-81
2023/01/25 02:24:17;;;;;;;58.23;34.20;;;2.20;99.90;;;;;;5094140;28;20223;-82
2023/01/25 02:26:46;;;;;;;59.67;34.43;;;2.20;99.90;;;;;;5082247;28;20542;-82
2023/01/25 02:29:14;;;;;;;60.40;33.37;;;2.10;99.90;;;;;;5074363;28;20299;-81
2023/01/25 02:31:44;;;;;;;56.47;34.23;;;2.10;99.90;;;;;;5073937;28;20193;-82
2023/01/25 02:34:11;;;;;;;56.47;34.60;;;2.20;99.90;;;;;;5089513;28;20197;-82
2023/01/25 02:36:38;;;;;;;54.80;32.20;;;2.10;99.90;;;;;;5094023;28;20606;-82
2023/01/25 02:39:08;;;;;;;61.73;34.20;;;2.10;99.90;;;;;;5094072;28;20307;-82
2023/01/25 02:41:37;;;;;;;60.70;35.13;;;2.10;99.90;;;;;;5074047;28;20284;-81
2023/01/25 02:44:08;;;;;;;62.50;35.57;;;2.10;99.90;;;;;;5074096;28;20204;-81
2023/01/25 02:46:37;;;;;;;60.17;34.20;;;2.10;99.90;;;;;;5073521;28;20308;-82
2023/01/25 02:49:06;;;;;;;64.57;36.00;;;2.10;99.90;;;;;;5082256;28;20652;-81
2023/01/25 02:51:35;;;;;;;70.47;37.57;;;2.00;99.90;;;;;;5092081;28;20500;-82
2023/01/25 02:54:04;;;;;;;64.43;35.80;;;2.00;99.90;;;;;;5073338;28;20216;-84
2023/01/25 02:56:31;;;;;;;63.23;35.13;;;2.00;99.90;;;;;;5073638;28;20225;-82
2023/01/25 02:58:58;;;;;;;69.83;37.53;;;2.00;99.90;;;;;;5073385;28;20331;-82
2023/01/25 03:01:27;;;;;;;61.63;35.13;;;2.00;99.90;;;;;;5072555;28;20285;-82
2023/01/25 03:03:54;;;;;;;65.40;34.77;;;2.00;99.90;;;;;;5073262;28;20284;-82
2023/01/25 03:06:21;;;;;;;65.17;35.73;;;2.00;99.90;;;;;;5073059;28;20201;-83
2023/01/25 03:08:48;;;;;;;69.73;37.37;;;2.00;99.90;;;;;;5072553;28;20205;-82
2023/01/25 03:11:15;;;;;;;70.17;38.47;;;2.00;99.90;;;;;;5073204;28;20193;-81
2023/01/25 03:13:42;;;;;;;65.50;36.77;;;2.00;99.90;;;;;;5073347;28;20562;-83
2023/01/25 03:16:10;;;;;;;63.23;35.50;;;2.00;99.90;;;;;;5072174;28;20193;-81
2023/01/25 03:18:39;;;;;;;66.67;36.97;;;2.00;99.90;;;;;;5073003;28;20280;-82
2023/01/25 03:21:08;;;;;;;64.53;35.60;;;2.00;99.90;;;;;;5073025;28;20730;-82
2023/01/25 03:23:35;;;;;;;68.10;36.97;;;2.00;99.90;;;;;;5071024;28;20272;-83
2023/01/25 03:26:10;;;;;;;70.87;38.33;;;2.00;99.90;;;;;;5073009;28;20540;-82
2023/01/25 03:28:38;;;;;;;60.87;35.40;;;2.00;99.90;;;;;;5087091;28;20622;-82
2023/01/25 03:31:06;;;;;;;59.90;33.37;;;2.00;99.90;;;;;;5092643;28;20203;-82
2023/01/25 03:33:33;;;;;;;63.10;35.23;;;2.00;99.90;;;;;;5093081;28;20200;-82
2023/01/25 03:36:02;;;;;;;64.57;35.13;;;2.00;99.90;;;;;;5092444;28;20206;-83
2023/01/25 03:38:29;;;;;;;64.03;35.00;;;2.00;99.90;;;;;;5076043;28;20681;-85
2023/01/25 03:40:56;;;;;;;60.80;34.93;;;2.00;99.90;;;;;;5072968;28;20217;-82
2023/01/25 03:43:23;;;;;;;63.00;35.63;;;2.00;99.90;;;;;;5071981;28;20224;-82
2023/01/25 03:45:53;;;;;;;65.87;37.40;;;2.00;99.90;;;;;;5072358;28;20239;-82
2023/01/25 03:48:20;;;;;;;63.50;35.73;;;1.90;99.90;;;;;;5072925;28;20276;-82
2023/01/25 03:50:51;;;;;;;57.57;33.97;;;2.00;99.90;;;;;;5072034;28;20534;-82
2023/01/25 03:53:26;;;;;;;60.03;33.87;;;1.90;99.90;;;;;;5072618;28;20677;-83
2023/01/25 03:55:55;;;;;;;61.83;35.07;;;1.90;99.90;;;;;;5073119;28;20205;-82
2023/01/25 03:58:22;;;;;;;59.73;33.90;;;1.90;99.90;;;;;;5071679;28;20200;-82
2023/01/25 04:00:48;;;;;;;62.27;34.93;;;1.90;99.90;;;;;;5072585;28;20224;-82
2023/01/25 04:03:16;;;;;;;59.93;34.30;;;1.90;99.90;;;;;;5072343;28;20528;-82
2023/01/25 04:05:43;;;;;;;67.73;37.37;;;1.90;99.90;;;;;;5071781;28;20612;-83
2023/01/25 04:08:10;;;;;;;66.30;36.27;;;1.90;99.90;;;;;;5072097;28;20244;-82
2023/01/25 04:10:38;;;;;;;60.00;33.83;;;1.90;99.90;;;;;;5071732;28;20231;-82
2023/01/25 04:13:05;;;;;;;63.73;35.70;;;1.90;99.90;;;;;;5071661;28;20292;-81
2023/01/25 04:15:32;;;;;;;66.23;36.10;;;1.90;99.90;;;;;;5072500;28;20280;-81
2023/01/25 04:17:59;;;;;;;62.30;35.30;;;1.90;99.90;;;;;;5072040;28;20201;-81
2023/01/25 04:20:26;;;;;;;65.23;34.10;;;1.80;99.90;;;;;;5072390;28;20221;-83
2023/01/25 04:22:53;;;;;;;63.20;36.43;;;1.80;99.90;;;;;;5073269;28;20542;-83
2023/01/25 04:25:19;;;;;;;62.80;34.77;;;1.80;99.90;;;;;;5072233;28;20288;-82
2023/01/25 04:27:49;;;;;;;69.90;34.67;;;1.80;99.90;;;;;;5072555;28;20197;-81
2023/01/25 04:30:17;;;;;;;63.33;34.00;;;1.80;99.90;;;;;;5072446;28;20197;-82
2023/01/25 04:32:44;;;;;;;63.30;35.60;;;1.80;99.90;;;;;;5072083;28;20205;-81
2023/01/25 04:35:10;;;;;;;65.40;36.17;;;1.80;99.90;;;;;;5075748;28;20294;-82
2023/01/25 04:37:37;;;;;;;70.43;36.10;;;1.80;99.90;;;;;;5075668;28;20201;-81
2023/01/25 04:40:06;;;;;;;70.57;36.10;;;1.80;99.90;;;;;;5075757;28;20312;-82
2023/01/25 04:42:32;;;;;;;63.80;36.17;;;1.80;99.90;;;;;;5076083;28;20284;-82
2023/01/25 04:45:01;;;;;;;66.23;34.90;;;1.80;99.90;;;;;;5076053;28;20198;-82
2023/01/25 04:47:28;;;;;;;58.00;32.80;;;1.80;99.90;;;;;;5080148;28;20212;-83
2023/01/25 04:49:55;;;;;;;61.67;33.30;;;1.80;99.90;;;;;;5095242;28;20239;-83
2023/01/25 04:52:22;;;;;;;57.77;32.33;;;1.80;99.90;;;;;;5083227;28;20209;-83
2023/01/25 04:54:48;;;;;;;56.07;30.90;;;1.80;99.90;;;;;;5074933;28;20196;-82
2023/01/25 04:57:15;;;;;;;59.97;32.37;;;1.90;99.90;;;;;;5076588;28;20243;-82
2023/01/25 04:59:42;;;;;;;62.53;32.43;;;1.90;99.90;;;;;;5078407;28;20812;-83
2023/01/25 05:02:11;;;;;;;59.40;32.07;;;1.80;99.90;;;;;;5077879;28;20251;-82
2023/01/25 05:04:37;;;;;;;59.30;32.20;;;1.80;99.90;;;;;;5076303;28;20201;-83
2023/01/25 05:07:04;;;;;;;58.63;31.73;;;1.90;99.90;;;;;;5076231;28;20265;-82
2023/01/25 05:09:31;;;;;;;55.80;31.30;;;1.90;99.90;;;;;;5075688;28;20535;-82
2023/01/25 05:11:58;;;;;;;60.23;32.30;;;1.90;99.90;;;;;;5075506;28;20215;-83
2023/01/25 05:14:25;;;;;;;61.67;34.10;;;1.80;99.90;;;;;;5075099;28;20204;-82
2023/01/25 05:16:52;;;;;;;56.23;30.60;;;1.80;99.90;;;;;;5075843;28;20569;-82
2023/01/25 05:19:20;;;;;;;58.90;31.97;;;1.80;99.90;;;;;;5075576;28;20296;-83
2023/01/25 05:21:59;;;;;;;60.07;33.27;;;1.80;99.90;;;;;;5075226;28;20284;-82
2023/01/25 05:24:27;;;;;;;55.20;29.83;;;1.80;99.90;;;;;;5075648;28;20280;-82
2023/01/25 05:26:59;;;;;;;58.07;31.93;;;1.90;99.90;;;;;;5075204;28;20197;-83
2023/01/25 05:29:26;;;;;;;59.13;32.53;;;1.80;99.90;;;;;;5074820;28;20285;-83
2023/01/25 05:31:53;;;;;;;57.33;31.53;;;1.80;99.90;;;;;;5087575;28;20200;-82
2023/01/25 05:34:21;;;;;;;55.87;30.77;;;1.80;99.90;;;;;;5090269;28;20212;-82
2023/01/25 05:36:48;;;;;;;51.83;29.30;;;1.80;99.90;;;;;;5074694;28;20198;-82
2023/01/25 05:39:15;;;;;;;54.63;30.23;;;1.80;99.90;;;;;;5074986;28;20199;-82
2023/01/25 05:41:42;;;;;;;53.73;30.53;;;1.80;99.90;;;;;;5074777;28;20601;-82
2023/01/25 05:44:09;;;;;;;56.83;32.60;;;1.80;99.90;;;;;;5074509;28;20201;-82
2023/01/25 05:46:36;;;;;;;61.83;34.10;;;1.80;99.90;;;;;;5073935;28;20320;-83
2023/01/25 05:49:03;;;;;;;54.90;31.50;;;1.80;99.90;;;;;;5074912;28;20202;-83
2023/01/25 05:51:32;;;;;;;55.60;31.87;;;1.80;99.90;;;;;;5074579;28;20328;-82
2023/01/25 05:53:59;;;;;;;57.43;32.03;;;1.80;99.90;;;;;;5074955;28;20208;-83
2023/01/25 05:56:26;;;;;;;56.50;31.33;;;1.70;99.90;;;;;;5074648;28;20201;-81
2023/01/25 05:58:53;;;;;;;56.43;31.00;;;1.70;99.90;;;;;;5073903;28;20284;-83
2023/01/25 06:01:20;;;;;;;54.97;31.07;;;1.70;99.90;;;;;;5073656;28;20220;-83
2023/01/25 06:03:47;;;;;;;54.03;31.13;;;1.70;99.90;;;;;;5074142;28;20484;-83
2023/01/25 06:06:14;;;;;;;55.37;30.37;;;1.70;99.90;;;;;;5074232;28;20205;-83
2023/01/25 06:08:43;;;;;;;53.67;30.83;;;1.70;99.90;;;;;;5074685;28;20201;-82
2023/01/25 06:11:11;;;;;;;51.80;31.80;;;1.70;99.90;;;;;;5073875;28;20665;-82
2023/01/25 06:13:38;;;;;;;56.60;30.13;;;1.70;99.90;;;;;;5074579;28;20205;-83
2023/01/25 06:16:06;;;;;;;54.90;31.10;;;1.60;99.90;;;;;;5074090;28;20284;-83
2023/01/25 06:18:33;;;;;;;59.00;31.90;;;1.60;99.90;;;;;;5073234;28;20209;-81
2023/01/25 06:21:01;;;;;;;59.37;32.93;;;1.60;99.90;;;;;;5074304;28;20304;-83
2023/01/25 06:23:28;;;;;;;55.33;30.50;;;1.60;99.90;;;;;;5073888;28;20193;-83
2023/01/25 06:25:59;;;;;;;54.53;30.57;;;1.60;99.90;;;;;;5073244;28;20275;-82
2023/01/25 06:28:29;;;;;;;57.60;32.47;;;1.60;99.90;;;;;;5074410;28;20788;-82
2023/01/25 06:30:56;;;;;;;57.57;31.57;;;1.60;99.90;;;;;;5074166;28;20193;-81
2023/01/25 06:33:22;;;;;;;58.17;33.23;;;1.60;99.90;;;;;;5073195;28;20597;-83
2023/01/25 06:35:51;;;;;;;59.30;32.27;;;1.60;99.90;;;;;;5072703;28;20197;-83
2023/01/25 06:38:18;;;;;;;57.30;31.57;;;1.60;99.90;;;;;;5072518;28;20212;-82
2023/01/25 06:40:45;;;;;;;56.37;32.23;;;1.60;99.90;;;;;;5072114;28;20527;-83
2023/01/25 06:43:13;;;;;;;55.97;31.17;;;1.60;99.90;;;;;;5073753;28;20276;-83
2023/01/25 06:45:40;;;;;;;61.10;32.33;;;1.60;99.90;;;;;;5073563;28;20225;-82
2023/01/25 06:48:07;;;;;;;56.50;32.03;;;1.60;99.90;;;;;;5073837;28;20503;-82
2023/01/25 06:50:34;;;;;;;62.57;33.60;;;1.60;99.90;;;;;;5082201;28;20236;-82
2023/01/25 06:53:01;;;;;;;58.73;32.90;;;1.60;99.90;;;;;;5093325;28;20808;-83
2023/01/25 06:55:28;;;;;;;60.63;33.83;;;1.60;99.90;;;;;;5093552;28;20275;-82
2023/01/25 06:57:55;;;;;;;59.53;32.57;;;1.60;99.90;;;;;;5093390;28;20200;-82
2023/01/25 07:00:23;;;;;;;64.33;35.50;;;1.60;99.90;;;;;;5076131;28;20362;-81
2023/01/25 07:02:50;;;;;;;60.97;34.30;;;1.60;99.90;;;;;;5073443;28;20228;-82
2023/01/25 07:05:17;;;;;;;66.90;35.93;;;1.60;99.90;;;;;;5072941;28;20585;-83
2023/01/25 07:07:46;;;;;;;66.60;36.33;;;1.60;99.90;;;;;;5073084;28;20277;-83
2023/01/25 07:10:13;;;;;;;67.03;34.90;;;1.50;99.90;;;;;;5074449;28;20215;-84
2023/01/25 07:12:40;;;;;;;59.37;33.70;;;1.50;99.90;;;;;;5074035;28;20207;-83
2023/01/25 07:15:09;;;;;;;60.50;33.10;;;1.50;99.90;;;;;;5073648;28;20284;-83
2023/01/25 07:17:37;;;;;;;61.03;32.90;;;1.60;99.90;;;;;;5073685;28;20572;-83
2023/01/25 07:20:04;;;;;;;58.33;33.33;;;1.60;99.90;;;;;;5073776;28;20219;-83
2023/01/25 07:22:31;;;;;;;59.77;33.17;;;1.60;99.90;;;;;;5073523;28;20241;-84
2023/01/25 07:24:58;;;;;;;62.83;34.13;;;1.50;99.90;;;;;;5073548;28;20282;-83
2023/01/25 07:27:25;;;;;;;62.30;34.70;;;1.50;99.90;;;;;;5073957;28;20473;-84
2023/01/25 07:29:52;;;;;;;63.53;33.77;;;1.50;99.90;;;;;;5072792;28;20292;-83
2023/01/25 07:32:19;;;;;;;66.30;35.80;;;1.50;99.90;;;;;;5072893;28;20284;-83
2023/01/25 07:34:48;;;;;;;66.87;34.73;;;1.50;99.90;;;;;;5072812;28;20639;-83
2023/01/25 07:37:15;;;;;;;60.27;32.93;;;1.60;99.90;;;;;;5072489;28;20638;-82
2023/01/25 07:39:46;;;;;;;63.67;34.87;;;1.50;99.90;;;;;;5072289;28;20201;-82
2023/01/25 07:42:14;;;;;;;64.63;34.00;;;1.60;99.90;;;;;;5074513;28;20189;-83
2023/01/25 07:44:40;;;;;;;60.93;34.50;;;1.60;99.90;;;;;;5092763;28;20193;-82
2023/01/25 07:47:07;;;;;;;59.03;33.33;;;1.60;99.90;;;;;;5088509;28;20231;-81
2023/01/25 07:49:34;;;;;;;67.70;36.37;;;1.60;99.90;;;;;;5072313;28;20232;-81
2023/01/25 07:52:03;;;;;;;61.37;33.57;;;1.60;99.90;;;;;;5073014;28;20185;-81
2023/01/25 07:54:30;;;;;;;60.43;32.87;;;1.60;99.90;;;;;;5072887;28;20239;-82
2023/01/25 07:56:57;;;;;;;62.83;33.73;;;1.60;99.90;;;;;;5071413;28;20283;-82
2023/01/25 07:59:25;;;;;;;67.57;36.43;;;1.60;99.90;;;;;;5072291;28;20271;-81
2023/01/25 08:01:52;;;;;;;62.20;34.20;;;1.50;99.90;;;;;;5071853;28;20640;-81
2023/01/25 08:04:19;;;;;;;63.80;35.17;;;1.50;99.90;;;;;;5091144;28;20251;-82
2023/01/25 08:06:48;;;;;;;65.13;36.10;;;1.50;99.90;;;;;;5082651;28;20201;-82
2023/01/25 08:13:36;;;;;;;63.50;33.20;;;1.50;99.90;;;;;;4955407;28;20712;-82
2023/01/25 08:16:05;;;;;;;61.87;32.80;;;1.50;99.90;;;;;;5049424;28;20209;-82
2023/01/25 08:18:32;;;;;;;65.30;35.10;;;1.50;99.90;;;;;;5052576;28;20221;-81
2023/01/25 08:21:00;;;;;;;63.87;33.50;;;1.50;99.90;;;;;;5048943;28;20226;-80
2023/01/25 08:23:28;;;;;;;63.37;32.43;;;1.40;99.90;;;;;;5046405;28;20244;-82
2023/01/25 08:25:56;;;;;;;65.77;35.53;;;1.40;99.90;;;;;;5040659;28;20221;-82
2023/01/25 08:28:23;;;;;;;64.63;32.93;;;1.40;99.90;;;;;;5052107;28;20197;-81
2023/01/25 08:31:13;;;;;;;60.00;33.10;;;1.40;99.90;;;;;;5034462;28;20213;-81
2023/01/25 08:33:41;;;;;;;64.87;34.83;;;1.40;99.90;;;;;;5033695;28;20202;-81
2023/01/25 08:36:09;;;;;;;64.67;34.93;;;1.40;99.90;;;;;;5033517;28;20207;-81
2023/01/25 08:38:38;;;;;;;62.50;32.83;;;1.40;99.90;;;;;;5032524;28;20767;-81
2023/01/25 08:41:05;;;;;;;65.97;34.43;;;1.40;99.90;;;;;;5032517;28;20325;-81
2023/01/25 08:43:32;;;;;;;59.97;34.03;;;1.40;99.90;;;;;;5051573;28;20293;-81
2023/01/25 08:45:59;;;;;;;59.73;33.10;;;1.40;99.90;;;;;;5050996;28;20349;-81
2023/01/25 08:48:28;;;;;;;65.97;34.97;;;1.50;99.90;;;;;;5052511;28;20204;-81
2023/01/25 08:50:55;;;;;;;62.40;33.90;;;1.50;99.90;;;;;;5052636;28;20229;-81
2023/01/25 08:53:22;;;;;;;67.20;35.37;;;1.50;99.90;;;;;;5051899;28;20610;-81
2023/01/25 08:55:49;;;;;;;70.17;36.43;;;1.40;99.90;;;;;;5050475;28;20240;-81
2023/01/25 08:58:18;;;;;;;65.93;33.23;;;1.50;99.90;;;;;;5048766;28;20260;-84
2023/01/25 09:00:46;;;;;;;67.37;34.87;;;1.50;99.90;;;;;;5052041;28;20226;-81
2023/01/25 09:03:13;;;;;;;63.70;33.60;;;1.50;99.90;;;;;;5052999;28;20206;-82
2023/01/25 09:05:41;;;;;;;66.63;34.20;;;1.50;99.90;;;;;;5045892;28;20212;-81
2023/01/25 09:08:10;;;;;;;72.10;36.53;;;1.50;99.90;;;;;;5033390;28;20533;-82
2023/01/25 09:10:37;;;;;;;67.37;35.87;;;1.50;99.90;;;;;;5071716;28;20197;-81
2023/01/25 09:13:04;;;;;;;66.57;33.80;;;1.60;99.90;;;;;;5068570;28;20323;-81
2023/01/25 09:15:31;;;;;;;66.20;35.33;;;1.60;99.90;;;;;;5071989;28;20205;-81
2023/01/25 09:17:58;;;;;;;67.93;36.73;;;1.60;99.90;;;;;;5058120;28;20656;-82
2023/01/25 09:20:25;;;;;;;72.33;37.93;;;1.60;99.90;;;;;;5053086;28;20293;-82
2023/01/25 09:22:55;;;;;;;68.57;38.13;;;1.60;99.90;;;;;;5053049;28;20293;-81
2023/01/25 09:25:22;;;;;;;71.23;39.57;;;1.70;99.90;;;;;;5052938;28;20244;-83
2023/01/25 09:27:50;;;;;;;67.20;37.30;;;1.70;99.90;;;;;;5052048;28;20619;-82
2023/01/25 09:30:17;;;;;;;75.10;39.33;;;1.70;99.90;;;;;;5052434;28;20217;-82
2023/01/25 09:32:45;;;;;;;72.20;38.03;;;1.70;99.90;;;;;;5051919;28;20202;-81
2023/01/25 09:35:11;;;;;;;72.20;35.97;;;1.80;99.90;;;;;;5051307;28;20379;-82
2023/01/25 09:37:38;;;;;;;68.93;37.30;;;1.80;99.90;;;;;;5051839;28;20798;-82
2023/01/25 09:40:19;;;;;;;75.00;38.20;;;1.80;99.90;;;;;;5036133;28;20324;-82
2023/01/25 09:43:04;;;;;;;72.40;37.10;;;1.90;99.90;;;;;;5074385;28;20651;-82
2023/01/25 09:45:32;;;;;;;69.87;37.67;;;1.90;99.90;;;;;;5073837;28;20679;-81
2023/01/25 09:48:17;;;;;;;65.33;35.93;;;1.90;99.90;;;;;;5074596;28;20198;-82
2023/01/25 09:51:02;;;;;;;67.80;35.13;;;2.00;99.90;;;;;;5074294;28;20324;-82
2023/01/25 09:53:33;;;;;;;68.10;37.03;;;2.00;99.90;;;;;;5075007;28;20217;-83
2023/01/25 09:56:08;;;;;;;76.53;39.47;;;2.10;99.90;;;;;;5074272;28;20216;-83
2023/01/25 09:58:38;;;;;;;68.57;36.00;;;2.10;99.90;;;;;;5093834;28;20602;-83
2023/01/25 10:01:16;;;;;;;70.63;37.57;;;2.10;99.90;;;;;;5094005;28;20205;-82
2023/01/25 10:03:50;;;;;;;75.23;39.30;;;2.00;99.90;;;;;;5093478;28;20214;-82
2023/01/25 10:06:17;;;;;;;72.07;37.73;;;2.00;99.90;;;;;;5084374;28;20204;-81
2023/01/25 10:08:52;;;;;;;73.33;38.30;;;2.00;99.90;;;;;;5095111;28;20496;-80
2023/01/25 10:11:25;;;;;;;68.33;37.03;;;2.00;99.90;;;;;;5094810;28;20180;-82
2023/01/25 10:13:54;;;;;;;68.57;37.43;;;2.00;99.90;;;;;;5081540;28;20244;-82
2023/01/25 10:16:25;;;;;;;74.13;38.53;;;2.00;99.90;;;;;;5074650;28;20209;-83
2023/01/25 10:19:02;;;;;;;69.50;37.10;;;2.10;99.90;;;;;;5074768;28;20198;-82
2023/01/25 10:21:34;;;;;;;70.60;36.63;;;2.10;99.90;;;;;;5074969;28;20216;-82
2023/01/25 10:24:26;;;;;;;73.77;38.17;;;2.10;99.90;;;;;;5074173;28;20201;-81
2023/01/25 10:26:56;;;;;;;69.77;38.27;;;2.20;99.90;;;;;;5071378;28;20197;-82
2023/01/25 10:29:28;;;;;;;65.03;37.03;;;2.20;99.90;;;;;;5088209;28;20212;-82
2023/01/25 10:32:00;;;;;;;73.00;40.43;;;2.20;99.90;;;;;;5093763;28;20288;-82
2023/01/25 10:34:32;;;;;;;73.93;39.30;;;2.30;99.90;;;;;;5077813;28;20205;-82
2023/01/25 10:37:04;;;;;;;73.97;40.20;;;2.30;99.90;;;;;;5073893;28;20296;-81
2023/01/25 10:39:33;;;;;;;70.37;39.47;;;2.30;99.90;;;;;;5073810;28;20327;-82
2023/01/25 10:42:07;;;;;;;79.00;40.43;;;2.30;99.90;;;;;;5073466;28;20304;-82
2023/01/25 10:44:35;;;;;;;74.37;38.53;;;2.30;99.90;;;;;;5073939;28;20199;-82
2023/01/25 10:47:11;;;;;;;75.73;40.17;;;2.30;99.90;;;;;;5073820;28;20229;-82
2023/01/25 10:49:42;;;;;;;73.60;39.93;;;2.30;99.90;;;;;;5091594;28;20224;-81
2023/01/25 10:52:15;;;;;;;68.27;38.47;;;2.40;99.90;;;;;;5093260;28;21021;-81
2023/01/25 10:54:42;;;;;;;72.97;39.30;;;2.40;99.90;;;;;;5093788;28;20197;-82
2023/01/25 10:57:15;;;;;;;69.97;37.93;;;2.40;99.90;;;;;;5085445;28;20280;-82
2023/01/25 10:59:45;;;;;;;66.70;36.43;;;2.50;99.90;;;;;;5073286;28;20236;-82
2023/01/25 11:02:38;;;;;;;65.70;37.43;;;2.40;99.90;;;;;;5077096;28;20648;-82
2023/01/25 11:05:25;;;;;;;70.20;37.90;;;2.50;99.90;;;;;;5093643;28;20276;-82
2023/01/25 11:07:52;;;;;;;73.60;39.13;;;2.50;99.90;;;;;;5093416;28;20601;-82
2023/01/25 11:10:31;;;;;;;75.17;39.33;;;2.40;99.90;;;;;;5076630;28;20288;-82
2023/01/25 11:13:25;;;;;;;69.70;37.37;;;2.50;99.90;;;;;;5073197;28;20297;-82
2023/01/25 11:15:54;;;;;;;71.17;38.83;;;2.50;99.90;;;;;;5073496;28;20296;-82
2023/01/25 11:18:24;;;;;;;75.37;40.20;;;2.50;99.90;;;;;;5073543;28;20232;-81
2023/01/25 11:21:11;;;;;;;68.27;39.33;;;2.50;99.90;;;;;;5073350;28;20232;-81
2023/01/25 11:23:38;;;;;;;72.07;37.70;;;2.50;99.90;;;;;;5073205;28;20197;-82
2023/01/25 11:26:15;;;;;;;70.60;37.80;;;2.50;99.90;;;;;;5074363;28;20236;-82
2023/01/25 11:28:47;;;;;;;67.43;37.67;;;2.60;99.90;;;;;;5073054;28;20200;-82
2023/01/25 11:31:19;;;;;;;70.53;38.83;;;2.60;99.90;;;;;;5092497;28;20217;-83
2023/01/25 11:33:46;;;;;;;72.03;39.20;;;2.60;99.90;;;;;;5088151;28;20308;-82
2023/01/25 11:36:22;;;;;;;71.27;37.97;;;2.60;99.90;;;;;;5072270;28;20231;-83
2023/01/25 11:39:05;;;;;;;69.37;38.33;;;2.70;99.90;;;;;;5073113;28;20193;-83
2023/01/25 11:41:40;;;;;;;76.17;40.80;;;2.70;99.90;;;;;;5072482;28;20605;-82
2023/01/25 11:44:35;;;;;;;72.03;39.03;;;2.80;99.90;;;;;;5074822;28;20225;-80
2023/01/25 11:47:12;;;;;;;73.27;39.87;;;2.80;99.90;;;;;;5076236;28;20221;-83
2023/01/25 11:49:52;;;;;;;67.23;38.90;;;2.80;99.90;;;;;;5076712;28;20247;-82
2023/01/25 11:52:31;;;;;;;75.53;40.27;;;2.80;99.90;;;;;;5076418;28;20203;-80
2023/01/25 11:55:08;;;;;;;71.80;39.63;;;2.80;99.90;;;;;;5075672;28;20197;-84
2023/01/25 11:58:03;;;;;;;64.13;37.10;;;2.90;99.90;;;;;;5075917;28;20769;-83
2023/01/25 12:00:48;;;;;;;68.27;39.73;;;2.90;99.90;;;;;;5082738;28;20199;-83
2023/01/25 12:03:40;;;;;;;62.37;35.93;;;2.90;99.90;;;;;;5085319;28;20238;-83
2023/01/25 12:06:13;;;;;;;69.00;40.20;;;3.00;99.90;;;;;;5096697;28;20272;-83
2023/01/25 12:09:01;;;;;;;71.70;40.03;;;3.00;99.90;;;;;;5087328;28;20205;-83
2023/01/25 12:11:43;;;;;;;72.43;39.60;;;3.00;99.90;;;;;;5083910;28;20227;-84
2023/01/25 12:14:17;;;;;;;78.57;40.70;;;3.00;99.90;;;;;;5087115;28;20625;-85
2023/01/25 12:17:04;;;;;;;69.90;38.67;;;3.00;99.90;;;;;;5082781;28;20231;-84
2023/01/25 12:19:51;;;;;;;63.33;37.07;;;3.10;99.90;;;;;;5086961;28;20284;-84
2023/01/25 12:22:38;;;;;;;66.90;36.87;;;3.10;99.90;;;;;;5083711;28;20235;-84
2023/01/25 12:25:20;;;;;;;69.73;40.60;;;3.10;99.90;;;;;;5079569;28;20276;-83
2023/01/25 12:28:01;;;;;;;64.37;36.77;;;3.20;99.90;;;;;;5074708;28;20197;-85
2023/01/25 12:30:43;;;;;;;66.33;39.10;;;3.20;99.90;;;;;;5075315;28;20586;-82
2023/01/25 12:33:15;;;;;;;61.27;36.03;;;3.20;99.90;;;;;;5075657;28;20193;-82
2023/01/25 12:35:46;;;;;;;61.00;35.43;;;3.30;99.90;;;;;;5076959;28;20197;-85
2023/01/25 12:38:19;;;;;;;63.77;37.37;;;3.30;99.90;;;;;;5082473;28;20603;-83
2023/01/25 12:40:51;;;;;;;64.07;37.07;;;3.30;99.90;;;;;;5084799;28;20204;-82
2023/01/25 12:43:23;;;;;;;63.50;37.10;;;3.30;99.90;;;;;;5078608;28;20300;-83
2023/01/25 12:45:51;;;;;;;58.20;36.23;;;3.30;99.90;;;;;;5084007;28;20316;-82
2023/01/25 12:48:23;;;;;;;63.10;36.40;;;3.40;99.90;;;;;;5080631;28;20300;-82
2023/01/25 12:50:55;;;;;;;65.57;39.43;;;3.40;99.90;;;;;;5086592;28;20312;-83
2023/01/25 12:53:25;;;;;;;69.27;39.90;;;3.40;99.90;;;;;;5082829;28;20209;-84